Bergland, Michigan
Current Conditions -  °F | °C
As of 6:35 AM on Thursday 27 Nov 2014 (Local Time) from KIWD Reporting Station
Overcast Overcast  
Wind Chill: -2°   Ceiling: 900
Heat Index: 10°   Visibility: 1.2mi
Dew Point:   Wind: 8mph
Humidity: 85%   Direction: 320°NW
Pressure: 30.3"   Gusts: NA
Location:  46.59°N, 89.57°W
Report Text: KIWD 271135Z AUTO 32007KT 1 1/4SM BKN009 OVC015 M12/M14 A3030 RMK AO1
Loading
Personal Weather Stations






























Interactive Weather Map New forecast layout! Learn more

10-Day Weather Forecast

Advertisements
Track Severe Weather on mobile